Latest Coastal Weather Observations for Wilsons Promontory

IDT60701

Issued at 5:22 pm EST Monday 29 August 2016 (issued every 10 minutes, with the page automatically refreshed every 10 minutes)

About coastal observations | Map of coastal stations | Coastal observations for TAS | Marine services | Other Formats
Station Details ID: 085096 Name: WILSONS PROMONTORY LIGHTHOUSE Lat: -39.13 Lon: 146.42 Height: 95.0 m
Data from the previous 72 hours. | See also: Recent months at Wilsons Promontory
Date/Time
EST
Temp
°C
Wind Pressure Rain since
9am
mm
Weather Cloud Vis
km
Sea
Height
m
Swell
Dir  Spd
kts
Gust
kts
hPa Trend Height
m
Period
s
Dir
29/05:00pm 12.3 NNE 9 10 1022.8 - 0.0 - - - - - - -
29/04:30pm 12.5 NNE 8 9 1022.6 - 0.0 - - - - - - -
29/04:00pm 12.6 NNE 8 8 1022.5 - 0.0 - - - - - - -
29/03:30pm 13.2 NE 6 7 1022.7 - 0.0 - - - - - - -
29/03:00pm 13.4 NNE 6 7 1022.7 - 0.0 - - - - - - -
29/02:30pm 13.7 NNE 6 7 1022.7 - 0.0 - - - - - - -
29/02:00pm 13.4 NE 6 7 1022.5 - 0.0 - - - - - - -
29/01:30pm 13.5 NE 5 7 1022.6 - 0.0 - - - - - - -
29/01:00pm 13.5 NE 3 5 1022.9 - 0.0 - - - - - - -
29/12:30pm 15.5 NNW 5 8 1023.2 - 0.0 - - - - - - -
29/12:00pm 14.3 NNE 5 8 1023.8 - 0.0 - - - - - - -
29/11:30am 14.8 NNE 4 9 1024.0 - 0.0 - - - - - - -
29/11:00am 14.4 N 6 8 1024.3 - 0.0 - - - - - - -
29/10:30am 13.5 NE 6 7 1024.3 - 0.0 - - - - - - -
29/10:00am 13.7 NE 7 8 1024.4 - 0.0 - - - - - - -
29/09:30am 13.3 NNE 8 9 1024.6 - 0.0 - - - - - - -
29/09:00am 12.6 NNE 9 10 1024.6 - 0.0 - - - - - - -
29/08:30am 12.4 NNE 9 11 1024.3 - 0.0 - - - - - - -
29/08:00am 11.9 NNE 9 10 1024.2 - 0.0 - - - - - - -
29/07:30am 10.2 NNE 9 11 1024.1 - 0.0 - - - - - - -
29/07:00am 9.8 NNE 11 13 1023.7 - 0.0 - - - - - - -
29/06:30am 9.3 NNE 10 12 1023.3 - 0.0 - - - - - - -
29/06:00am 9.2 NNE 10 11 1023.1 - 0.0 - - - - - - -
29/05:30am 9.1 NNE 8 9 1022.9 - 0.0 - - - - - - -
29/05:00am 9.2 NNE 8 9 1022.6 - 0.0 - - - - - - -
29/04:00am 9.6 CALM 0 0 1022.1 - 0.0 - - - - - - -
29/03:30am 9.4 CALM 0 0 1022.0 - 0.0 - - - - - - -
29/03:00am 9.7 CALM 0 0 1022.1 - 0.0 - - - - - - -
29/02:30am 9.6 CALM 0 0 1021.9 - 0.0 - - - - - - -
29/02:00am 9.5 CALM 0 4 1022.3 - 0.0 - - - - - - -
29/01:30am 9.6 SW 1 3 1022.4 - 0.0 - - - - - - -
29/01:00am 9.5 CALM 0 4 1022.3 - 0.0 - - - - - - -
29/12:30am 9.4 NNE 1 4 1022.2 - 0.0 - - - - - - -
29/12:00am 9.1 NNE 7 8 1022.2 - 0.0 - - - - - - -
 
Date/Time
EST
Temp
°C
Wind Pressure Rain since
9am
mm
Weather Cloud Vis
km
Sea
Height
m
Swell
Dir  Spd
kts
Gust
kts
hPa Trend Height
m
Period
s
Dir
28/11:30pm 9.2 NE 7 8 1021.9 - 0.0 - - - - - - -
28/11:00pm 9.2 NNE 6 7 1021.9 - 0.0 - - - - - - -
28/10:30pm 9.2 NNE 6 7 1021.9 - 0.0 - - - - - - -
28/10:00pm 9.1 NE 5 6 1021.7 - 0.0 - - - - - - -
28/09:30pm 9.2 NNE 5 7 1021.4 - 0.0 - - - - - - -
28/09:00pm 9.6 CALM 0 0 1021.3 - 0.0 - - - - - - -
28/08:30pm 9.6 SW 1 4 1021.0 - 0.0 - - - - - - -
28/08:00pm 9.6 WSW 3 5 1020.7 - 0.0 - - - - - - -
28/07:30pm 9.7 CALM 0 0 1020.5 - 0.0 - - - - - - -
28/07:00pm 9.8 CALM 0 2 1020.2 - 0.0 - - - - - - -
28/06:30pm 10.2 WSW 4 6 1020.1 - 0.0 - - - - - - -
28/06:00pm 10.4 WSW 6 10 1019.9 - 0.0 - - - - - - -
28/05:30pm 10.5 WSW 4 10 1019.3 - 0.0 - - - - - - -
28/05:00pm 10.8 WSW 9 11 1019.1 - 0.0 - - - - - - -
28/04:30pm 11.3 W 8 10 1019.0 - 0.0 - - - - - - -
28/04:00pm 11.1 W 9 13 1018.9 - 0.0 - - - - - - -
28/03:30pm 10.9 W 10 13 1018.7 - 0.0 - - - - - - -
28/03:00pm 11.0 W 9 12 1018.7 - 0.0 - - - - - - -
28/02:30pm 10.8 W 8 11 1018.6 - 0.0 - - - - - - -
28/02:00pm 10.5 W 12 17 1018.8 - 0.0 - - - - - - -
28/01:30pm 10.5 W 10 15 1018.8 - 0.0 - - - - - - -
28/01:00pm 10.4 W 10 15 1018.9 - 0.0 - - - - - - -
28/12:30pm 10.5 W 12 16 1018.9 - 0.0 - - - - - - -
28/12:00pm 10.4 WSW 16 19 1019.2 - 0.0 - - - - - - -
28/11:30am 10.2 WSW 17 20 1019.1 - 0.0 - - - - - - -
28/11:00am 10.1 WSW 19 22 1019.0 - 0.0 - - - - - - -
28/10:30am 10.1 WSW 13 22 1018.7 - 0.0 - - - - - - -
28/10:14am 10.2 SW 15 25 1018.4 - 0.0 - - - - - - -
28/10:00am 10.1 S 10 29 1018.1 - 0.0 - - - - - - -
28/09:30am 10.4 W 16 26 1018.0 - 0.0 - - - - - - -
28/09:00am 10.1 W 24 40 1018.0 - 4.2 - - - - - - -
28/08:30am 10.1 W 22 33 1017.4 - 3.6 - - - - - - -
28/08:00am 10.2 WNW 25 37 1017.0 - 2.0 - - - - - - -
28/07:30am 10.3 W 23 39 1016.3 - 1.2 - - - - - - -
28/07:00am 10.8 W 25 41 1015.8 - 0.4 - - - - - - -
28/06:30am 10.7 W 25 40 1015.6 - 0.4 - - - - - - -
28/06:00am 10.9 W 26 46 1015.3 - 0.4 - - - - - - -
28/05:30am 11.0 W 28 41 1014.8 - 0.2 - - - - - - -
28/05:00am 11.7 W 25 46 1014.4 - 0.0 - - - - - - -
28/04:30am 12.2 WNW 27 43 1013.7 - 0.0 - - - - - - -
28/04:00am 11.9 W 22 44 1013.8 - 0.0 - - - - - - -
28/03:30am 11.9 W 18 46 1013.8 - 0.0 - - - - - - -
28/03:23am 11.8 WNW 27 46 1013.4 - 0.0 - - - - - - -
28/03:00am 11.8 W 15 34 1013.9 - 0.0 - - - - - - -
28/02:41am 11.7 NW 15 29 1013.9 - 0.0 - - - - - - -
28/02:30am 11.8 NNW 12 27 1014.1 - 0.0 - - - - - - -
28/02:15am 11.9 NNW 15 37 1014.2 - 0.0 - - - - - - -
28/02:00am 11.7 N 11 26 1014.3 - 0.0 - - - - - - -
28/01:30am 11.7 NNW 11 27 1014.5 - 0.0 - - - - - - -
28/01:02am 11.7 NW 15 30 1014.5 - 0.0 - - - - - - -
28/01:00am 11.6 NW 12 29 1014.4 - 0.0 - - - - - - -
28/12:42am 11.7 NW 15 32 1014.5 - 0.0 - - - - - - -
28/12:30am 11.7 NW 14 28 1014.8 - 0.0 - - - - - - -
28/12:02am 11.6 NNW 15 38 1014.7 - 0.0 - - - - - - -
28/12:00am 11.7 NNW 14 38 1014.7 - 0.0 - - - - - - -
 
Date/Time
EST
Temp
°C
Wind Pressure Rain since
9am
mm
Weather Cloud Vis
km
Sea
Height
m
Swell
Dir  Spd
kts
Gust
kts
hPa Trend Height
m
Period
s
Dir
27/11:30pm 11.6 NW 17 41 1014.8 - 0.0 - - - - - - -
27/11:21pm 11.6 NNW 16 41 1014.7 - 0.0 - - - - - - -
27/11:00pm 11.5 NNW 13 31 1015.5 - 0.0 - - - - - - -
27/10:48pm 11.5 NNW 15 33 1015.2 - 0.0 - - - - - - -
27/10:30pm 11.4 NNW 14 33 1015.4 - 0.0 - - - - - - -
27/10:24pm 11.4 NNW 18 33 1015.2 - 0.0 - - - - - - -
27/10:00pm 11.4 NW 7 16 1015.6 - 0.0 - - - - - - -
27/09:30pm 11.4 NNW 7 16 1016.4 - 0.0 - - - - - - -
27/09:00pm 11.6 NW 10 22 1016.7 - 0.0 - - - - - - -
27/08:30pm 11.5 N 7 26 1016.7 - 0.0 - - - - - - -
27/08:00pm 11.0 WNW 9 18 1016.5 - 0.0 - - - - - - -
27/07:30pm 11.1 N 7 15 1016.6 - 0.0 - - - - - - -
27/07:00pm 11.0 W 8 15 1016.7 - 0.0 - - - - - - -
27/06:30pm 10.9 W 8 19 1016.6 - 0.0 - - - - - - -
27/06:00pm 10.9 W 11 20 1016.7 - 0.0 - - - - - - -
27/05:30pm 10.9 W 13 19 1016.4 - 0.0 - - - - - - -
27/05:00pm 11.3 W 16 27 1016.0 - 0.0 - - - - - - -
27/04:30pm 11.4 W 20 31 1015.7 - 0.0 - - - - - - -
27/04:00pm 11.5 W 18 32 1016.0 - 0.0 - - - - - - -
27/03:30pm 11.9 W 19 29 1015.9 - 0.0 - - - - - - -
27/03:00pm 12.1 W 18 34 1016.4 - 0.0 - - - - - - -
27/02:30pm 11.5 W 17 28 1016.8 - 0.0 - - - - - - -
27/02:00pm 11.6 W 24 40 1016.5 - 0.0 - - - - - - -
27/01:30pm 11.8 W 21 37 1016.9 - 0.0 - - - - - - -
27/01:00pm 11.7 W 19 34 1017.2 - 0.0 - - - - - - -
27/12:48pm 11.7 W 18 41 1017.3 - 0.0 - - - - - - -
27/12:30pm 11.9 W 16 31 1017.6 - 0.0 - - - - - - -
27/12:00pm 11.4 W 19 36 1018.2 - 0.0 - - - - - - -
27/11:30am 11.7 W 18 33 1018.4 - 0.0 - - - - - - -
27/11:00am 11.6 W 16 27 1018.6 - 0.0 - - - - - - -
27/10:30am 11.1 W 22 39 1018.6 - 0.0 - - - - - - -
27/10:25am 11.1 W 19 39 1018.1 - 0.0 - - - - - - -
27/10:04am 10.9 WNW 15 26 1018.4 - 0.0 - - - - - - -
27/10:00am 11.0 WNW 10 30 1018.7 - 0.0 - - - - - - -
27/09:30am 11.0 NNE 5 10 1018.9 - 0.0 - - - - - - -
27/09:00am 10.7 W 6 26 1019.3 - 6.2 - - - - - - -
27/08:30am 10.4 WNW 8 18 1019.2 - 6.2 - - - - - - -
27/08:00am 10.6 N 7 19 1019.0 - 6.2 - - - - - - -
27/07:40am 10.1 WNW 15 29 1018.8 - 6.2 - - - - - - -
27/07:30am 9.9 NW 13 26 1018.8 - 6.2 - - - - - - -
27/07:00am 9.9 WNW 17 33 1018.5 - 6.2 - - - - - - -
27/06:38am 9.9 WNW 15 29 1018.4 - 6.2 - - - - - - -
27/06:30am 9.9 W 13 27 1018.5 - 6.2 - - - - - - -
27/06:07am 9.6 WNW 15 28 1018.1 - 6.2 - - - - - - -
27/06:00am 9.4 WNW 11 25 1018.3 - 6.2 - - - - - - -
27/05:30am 9.4 NNW 8 22 1018.3 - 6.2 - - - - - - -
27/05:00am 9.1 NNW 9 19 1018.2 - 6.2 - - - - - - -
27/04:30am 9.3 NW 9 19 1018.1 - 6.2 - - - - - - -
27/04:00am 9.4 WNW 11 28 1018.0 - 6.2 - - - - - - -
27/03:30am 9.6 NW 11 27 1017.9 - 6.2 - - - - - - -
27/03:00am 10.0 NW 10 20 1018.2 - 6.2 - - - - - - -
27/02:30am 10.4 WNW 16 26 1018.2 - 6.2 - - - - - - -
27/02:21am 10.2 W 15 27 1018.2 - 6.2 - - - - - - -
27/02:00am 10.3 W 15 24 1018.6 - 6.2 - - - - - - -
27/01:35am 10.3 W 17 27 1018.8 - 6.2 - - - - - - -
27/01:30am 10.3 W 19 27 1018.6 - 6.2 - - - - - - -
27/01:00am 10.0 W 18 28 1018.8 - 6.2 - - - - - - -
27/12:42am 10.0 W 19 29 1018.7 - 6.2 - - - - - - -
27/12:30am 10.3 W 16 25 1019.1 - 6.2 - - - - - - -
27/12:00am 10.2 W 20 32 1019.1 - 6.2 - - - - - - -
 
Date/Time
EST
Temp
°C
Wind Pressure Rain since
9am
mm
Weather Cloud Vis
km
Sea
Height
m
Swell
Dir  Spd
kts
Gust
kts
hPa Trend Height
m
Period
s
Dir
26/11:33pm 10.0 W 20 32 1018.9 - 6.0 - - - - - - -
26/11:30pm 10.0 W 18 24 1019.0 - 6.0 - - - - - - -
26/11:10pm 9.7 W 15 30 1019.1 - 6.0 - - - - - - -
26/11:00pm 9.6 W 16 23 1019.3 - 6.0 - - - - - - -
26/10:30pm 9.6 W 20 30 1019.0 - 5.8 - - - - - - -
26/10:00pm 9.5 W 20 31 1019.0 - 4.6 - - - - - - -
26/09:32pm 9.9 W 22 33 1018.7 - 2.8 - - - - - - -
26/09:30pm 9.9 W 21 30 1018.8 - 2.8 - - - - - - -
26/09:00pm 9.7 W 20 31 1019.0 - 2.8 - - - - - - -
26/08:37pm 9.7 W 18 29 1018.8 - 2.4 - - - - - - -
26/08:30pm 9.7 W 19 26 1018.8 - 2.4 - - - - - - -
26/08:02pm 9.8 W 19 29 1018.9 - 1.4 - - - - - - -
26/08:00pm 10.0 W 18 25 1018.9 - 1.2 - - - - - - -
26/07:30pm 9.9 W 19 29 1018.8 - 1.2 - - - - - - -
26/07:22pm 9.8 W 18 28 1018.7 - 1.2 - - - - - - -
26/07:00pm 9.5 W 19 28 1018.5 - 1.2 - - - - - - -
26/06:31pm 9.3 W 18 29 1018.4 - 1.2 - - - - - - -
26/06:30pm 9.3 W 18 26 1018.4 - 1.2 - - - - - - -
26/06:06pm 9.4 W 22 32 1018.1 - 1.2 - - - - - - -
26/06:00pm 9.3 W 19 28 1018.3 - 1.2 - - - - - - -
26/05:30pm 9.2 W 21 31 1017.9 - 0.6 - - - - - - -

Other Formats:

Comma delimited format used in spreadsheet applications
http://www.bom.gov.au/fwo/IDT60701/IDT60701.94893.axf

JavaScript Object Notation format (JSON) in row-major order
http://www.bom.gov.au/fwo/IDT60701/IDT60701.94893.json